LHBP/BUD METAR and TAF weather

Enter ICAO airport designator
Station Type Date Time Source
LHBP METAR 2019/06/18 04:30 UTC NOAA

LHBP 180430Z 34004KT CAVOK 17/14 Q1017 NOSIG


Station Type Date Time Source
LHBP Decoded METAR 2019/06/18 04:30 UTC NOAA

Budapest / Ferihegy, Hungary (LHBP) 47-26N 019-16E 185M
Jun 18, 2019 - 12:30 AM EDT / 2019.06.18 0430 UTC
Wind: from the NNW (340 degrees) at 5 MPH (4 KT):0
Visibility: greater than 7 mile(s):0
Temperature: 62 F (17 C)
Dew Point: 57 F (14 C)
Relative Humidity: 82%
Pressure (altimeter): 30.03 in. Hg (1017 hPa)
ob: LHBP 180430Z 34004KT CAVOK 17/14 Q1017 NOSIG
cycle: 4

Station Type Date Time Source
LHBP TAF 2019/06/17 18:27 UTC NOAA

TAF TAF LHBP 171715Z 1718/1818 03007KT CAVOK
BECMG 1718/1720 VRB03KT
BECMG 1806/1808 07007KT SCT035
TEMPO 1810/1817 SCT045TCU BKN110

Example: see airport list